createdAt,value
2018-07-03T00:00:42.448Z,66
2018-07-03T00:01:44.482Z,66
2018-07-03T00:02:46.515Z,66
2018-07-03T00:03:48.901Z,66
2018-07-03T00:04:50.917Z,66
2018-07-03T00:05:52.950Z,67
2018-07-03T00:06:55.379Z,66
2018-07-03T00:07:57.424Z,67
2018-07-03T00:08:59.457Z,67
2018-07-03T00:10:01.495Z,67
2018-07-03T00:11:03.928Z,67
2018-07-03T00:12:05.960Z,67
2018-07-03T00:13:07.995Z,67
2018-07-03T00:14:10.028Z,67
2018-07-03T00:15:12.466Z,67
2018-07-03T00:16:14.507Z,67
2018-07-03T00:17:16.819Z,67
2018-07-03T00:18:18.859Z,68
2018-07-03T00:19:20.908Z,68
2018-07-03T00:20:22.942Z,68
2018-07-03T00:21:24.981Z,68
2018-07-03T00:22:27.016Z,68
2018-07-03T00:23:29.054Z,68
2018-07-03T00:24:31.496Z,69
2018-07-03T00:25:33.522Z,69
2018-07-03T00:26:35.564Z,69
2018-07-03T00:27:37.607Z,69
2018-07-03T00:28:39.640Z,70
2018-07-03T00:29:41.676Z,70
2018-07-03T00:30:43.719Z,70
2018-07-03T00:31:45.753Z,71
2018-07-03T00:32:48.167Z,70
2018-07-03T00:33:50.204Z,70
2018-07-03T00:34:52.545Z,71
2018-07-03T00:35:54.591Z,70
2018-07-03T00:36:56.629Z,70
2018-07-03T00:37:58.670Z,70
2018-07-03T00:39:00.704Z,70
2018-07-03T00:40:02.754Z,70
2018-07-03T00:41:05.077Z,71
2018-07-03T00:42:07.100Z,71
2018-07-03T00:43:09.149Z,71
2018-07-03T00:44:11.185Z,71
2018-07-03T00:45:13.229Z,71
2018-07-03T00:46:15.259Z,71
2018-07-03T00:47:17.967Z,71
2018-07-03T00:48:20.006Z,71
2018-07-03T00:49:22.318Z,72
2018-07-03T00:50:24.358Z,72
2018-07-03T00:51:26.684Z,72
2018-07-03T00:52:28.723Z,72
2018-07-03T00:53:31.139Z,72
2018-07-03T00:54:33.561Z,73
2018-07-03T00:55:35.613Z,72
2018-07-03T00:56:37.639Z,72
2018-07-03T00:57:39.676Z,72
2018-07-03T00:58:41.718Z,73
2018-07-03T00:59:43.756Z,73
2018-07-03T01:00:45.795Z,73
2018-07-03T01:01:47.835Z,73
2018-07-03T01:02:50.154Z,74
2018-07-03T01:03:52.507Z,73
2018-07-03T01:04:54.531Z,73
2018-07-03T01:05:56.581Z,73
2018-07-03T01:06:58.612Z,73
2018-07-03T01:08:00.655Z,73
2018-07-03T01:09:02.695Z,72
2018-07-03T01:10:04.721Z,72
2018-07-03T01:11:06.763Z,73
2018-07-03T01:12:08.796Z,73
2018-07-03T01:13:10.834Z,73
2018-07-03T01:14:12.872Z,73
2018-07-03T01:15:14.919Z,73
2018-07-03T01:16:17.260Z,73
2018-07-03T01:17:19.306Z,73
2018-07-03T01:18:21.336Z,74
2018-07-03T01:19:23.375Z,74
2018-07-03T01:20:25.793Z,75
2018-07-03T01:21:28.150Z,75
2018-07-03T01:22:30.178Z,75
2018-07-03T01:23:32.233Z,75
2018-07-03T01:24:34.266Z,75
2018-07-03T01:25:36.304Z,75
2018-07-03T01:26:38.661Z,76
2018-07-03T01:27:40.698Z,75
2018-07-03T01:28:42.734Z,76
2018-07-03T01:29:44.775Z,76
2018-07-03T01:30:46.805Z,76
2018-07-03T01:31:48.845Z,76
2018-07-03T01:32:50.871Z,75
2018-07-03T01:33:53.191Z,75
2018-07-03T01:34:55.226Z,75
2018-07-03T01:35:57.266Z,75
2018-07-03T01:36:59.297Z,76
2018-07-03T01:38:01.338Z,76
2018-07-03T01:39:03.370Z,76
2018-07-03T01:40:05.730Z,77
2018-07-03T01:41:07.755Z,76
2018-07-03T01:42:09.801Z,77
2018-07-03T01:43:12.122Z,76
2018-07-03T01:44:14.162Z,77
2018-07-03T01:45:16.474Z,77
2018-07-03T01:46:18.513Z,77
2018-07-03T01:47:20.547Z,77
2018-07-03T01:48:22.581Z,76
2018-07-03T01:49:24.614Z,77
2018-07-03T01:50:26.664Z,77
2018-07-03T01:51:28.700Z,78
2018-07-03T01:52:30.744Z,78
2018-07-03T01:53:33.056Z,78
2018-07-03T01:54:35.093Z,78
2018-07-03T01:55:37.147Z,78
2018-07-03T01:56:39.466Z,78
2018-07-03T01:57:41.504Z,78
2018-07-03T01:58:43.543Z,78
2018-07-03T01:59:45.575Z,78
2018-07-03T02:00:47.614Z,78
2018-07-03T02:01:49.648Z,79
2018-07-03T02:02:51.693Z,79
2018-07-03T02:03:53.731Z,79
2018-07-03T02:04:55.764Z,79
2018-07-03T02:05:58.192Z,79
2018-07-03T02:07:00.619Z,79
2018-07-03T02:08:02.656Z,79
2018-07-03T02:09:04.693Z,79
2018-07-03T02:10:06.720Z,79
2018-07-03T02:11:09.043Z,80
2018-07-03T02:12:11.076Z,80
2018-07-03T02:13:13.713Z,80
2018-07-03T02:14:15.755Z,80
2018-07-03T02:15:17.793Z,80
2018-07-03T02:16:20.103Z,80
2018-07-03T02:17:22.416Z,80
2018-07-03T02:18:24.454Z,80
2018-07-03T02:19:26.492Z,80
2018-07-03T02:20:29.112Z,80
2018-07-03T02:21:31.168Z,80
2018-07-03T02:22:33.196Z,80
2018-07-03T02:23:35.222Z,80
2018-07-03T02:24:37.257Z,80
2018-07-03T02:25:39.298Z,81
2018-07-03T02:26:41.338Z,80
2018-07-03T02:27:43.380Z,81
2018-07-03T02:28:45.416Z,80
2018-07-03T02:29:47.743Z,80
2018-07-03T02:30:50.056Z,81
2018-07-03T02:31:52.086Z,81
2018-07-03T02:32:54.132Z,81
2018-07-03T02:33:56.169Z,81
2018-07-03T02:34:58.594Z,82
2018-07-03T02:36:00.650Z,82
2018-07-03T02:37:02.971Z,82
2018-07-03T02:38:05.394Z,82
2018-07-03T02:39:07.448Z,82
2018-07-03T02:40:09.465Z,82
2018-07-03T02:41:11.514Z,82
2018-07-03T02:42:13.550Z,83
2018-07-03T02:43:15.645Z,83
2018-07-03T02:44:17.685Z,83
2018-07-03T02:45:19.991Z,83
2018-07-03T02:46:22.321Z,83
2018-07-03T02:47:24.650Z,83
2018-07-03T02:48:26.967Z,83
2018-07-03T02:49:29.395Z,82
2018-07-03T02:50:31.431Z,83
2018-07-03T02:51:33.764Z,83
2018-07-03T02:52:36.383Z,84
2018-07-03T02:53:38.416Z,84
2018-07-03T02:54:40.756Z,84
2018-07-03T02:55:42.793Z,84
2018-07-03T02:56:44.824Z,84
2018-07-03T02:57:47.537Z,84
2018-07-03T02:58:49.574Z,84
2018-07-03T02:59:51.902Z,84
2018-07-03T03:00:53.934Z,84
2018-07-03T03:01:55.980Z,84
2018-07-03T03:02:58.612Z,84
2018-07-03T03:04:00.921Z,84
2018-07-03T03:05:02.967Z,84
2018-07-03T03:06:05.010Z,84
2018-07-03T03:07:07.048Z,84
2018-07-03T03:08:09.158Z,84
2018-07-03T03:09:11.124Z,84
2018-07-03T03:10:13.540Z,84
2018-07-03T03:11:16.275Z,84
2018-07-03T03:12:18.615Z,84
2018-07-03T03:13:20.657Z,84
2018-07-03T03:14:22.687Z,84
2018-07-03T03:15:24.716Z,84
2018-07-03T03:16:26.756Z,84
2018-07-03T03:17:29.068Z,84
2018-07-03T03:18:31.404Z,85
2018-07-03T03:19:34.386Z,85
2018-07-03T03:20:36.703Z,84
2018-07-03T03:21:39.122Z,84
2018-07-03T03:22:41.442Z,85
2018-07-03T03:23:43.763Z,84
2018-07-03T03:24:46.188Z,84
2018-07-03T03:25:48.212Z,84
2018-07-03T03:26:50.268Z,84
2018-07-03T03:27:52.589Z,84
2018-07-03T03:28:54.627Z,84
2018-07-03T03:29:56.664Z,85
2018-07-03T03:30:58.991Z,84
2018-07-03T03:32:01.318Z,84
2018-07-03T03:33:03.352Z,84
2018-07-03T03:34:05.391Z,84
2018-07-03T03:35:07.433Z,85
2018-07-03T03:36:09.455Z,85
2018-07-03T03:37:11.507Z,84
2018-07-03T03:38:13.538Z,84
2018-07-03T03:39:15.578Z,83
2018-07-03T03:40:18.001Z,84
2018-07-03T03:41:20.312Z,84
2018-07-03T03:42:22.356Z,84
2018-07-03T03:43:24.392Z,84
2018-07-03T03:44:26.689Z,84
2018-07-03T03:45:28.730Z,84
2018-07-03T03:46:31.061Z,84
2018-07-03T03:47:33.096Z,85
2018-07-03T03:48:35.134Z,85
2018-07-03T03:49:37.180Z,84
2018-07-03T03:50:39.525Z,84
2018-07-03T03:51:41.554Z,84
2018-07-03T03:52:43.874Z,84
2018-07-03T03:53:45.947Z,84
2018-07-03T03:54:47.970Z,84
2018-07-03T03:55:49.987Z,84
2018-07-03T03:56:52.033Z,84
2018-07-03T03:57:54.078Z,84
2018-07-03T03:58:56.101Z,84
2018-07-03T03:59:58.145Z,84
2018-07-03T04:01:00.882Z,85
2018-07-03T04:02:02.935Z,85
2018-07-03T04:03:05.272Z,85
2018-07-03T04:04:07.294Z,85
2018-07-03T04:05:09.330Z,84
2018-07-03T04:06:12.039Z,84
2018-07-03T04:07:14.458Z,84
2018-07-03T04:08:16.507Z,84
2018-07-03T04:09:18.546Z,84
2018-07-03T04:10:20.572Z,85
2018-07-03T04:11:22.622Z,84
2018-07-03T04:12:24.931Z,84
2018-07-03T04:13:27.272Z,84
2018-07-03T04:14:29.309Z,84
2018-07-03T04:15:31.353Z,84
2018-07-03T04:16:33.387Z,84
2018-07-03T04:17:38.753Z,84
2018-07-03T04:18:40.762Z,84
2018-07-03T04:19:42.798Z,83
2018-07-03T04:20:46.266Z,83
2018-07-03T04:21:48.289Z,82
2018-07-03T04:22:50.325Z,81
2018-07-03T04:23:52.352Z,81
2018-07-03T04:24:54.399Z,81
2018-07-03T04:25:56.437Z,81
2018-07-03T04:26:58.730Z,81
2018-07-03T04:28:02.180Z,81
2018-07-03T04:29:04.176Z,81
2018-07-03T04:30:06.196Z,81
2018-07-03T04:31:08.208Z,81
2018-07-03T04:32:10.197Z,81
2018-07-03T04:33:12.196Z,81
2018-07-03T04:34:14.209Z,80
2018-07-03T04:35:16.198Z,79
2018-07-03T04:36:18.185Z,78
2018-07-03T04:37:20.181Z,78
2018-07-03T04:38:22.494Z,78
2018-07-03T04:39:25.134Z,78
2018-07-03T04:40:27.180Z,79
2018-07-03T04:41:29.283Z,79
2018-07-03T04:43:01.862Z,79
2018-07-03T04:44:06.917Z,79
2018-07-03T04:45:08.958Z,79
2018-07-03T04:46:11.005Z,79
2018-07-03T04:47:13.043Z,79
2018-07-03T04:48:15.379Z,78
2018-07-03T04:49:17.688Z,78
2018-07-03T04:50:19.725Z,78
2018-07-03T04:51:21.768Z,77
2018-07-03T04:52:23.804Z,76
2018-07-03T04:53:25.898Z,76
2018-07-03T04:54:27.877Z,76
2018-07-03T04:55:30.204Z,76
2018-07-03T04:56:32.244Z,77
2018-07-03T04:57:34.279Z,76
2018-07-03T04:58:36.646Z,76
2018-07-03T04:59:38.687Z,75
2018-07-03T05:00:40.728Z,75
2018-07-03T05:01:42.720Z,75
2018-07-03T05:02:47.777Z,75
2018-07-03T05:03:49.816Z,75
2018-07-03T05:04:51.858Z,75
2018-07-03T05:05:53.898Z,75
2018-07-03T05:06:55.943Z,75
2018-07-03T05:07:59.365Z,75
2018-07-03T05:09:02.021Z,75
2018-07-03T05:10:04.828Z,75
2018-07-03T05:11:06.765Z,75
2018-07-03T05:12:09.053Z,74
2018-07-03T05:13:11.053Z,74
2018-07-03T05:14:13.067Z,74
2018-07-03T05:15:15.058Z,73
2018-07-03T05:16:17.067Z,74
2018-07-03T05:17:19.102Z,74
2018-07-03T05:18:21.060Z,73
2018-07-03T05:19:23.059Z,73
2018-07-03T05:20:25.062Z,74
2018-07-03T05:21:27.055Z,73
2018-07-03T05:22:32.125Z,73
2018-07-03T05:23:34.176Z,74
2018-07-03T05:24:36.534Z,73
2018-07-03T05:25:38.790Z,74
2018-07-03T05:26:40.785Z,74
2018-07-03T05:27:45.874Z,72
2018-07-03T05:28:47.922Z,72
2018-07-03T05:29:50.249Z,72
2018-07-03T05:30:52.581Z,72
2018-07-03T05:31:55.015Z,71
2018-07-03T05:32:57.053Z,71
2018-07-03T05:33:59.094Z,71
2018-07-03T05:35:01.198Z,71
2018-07-03T05:36:03.246Z,70
2018-07-03T05:37:05.276Z,70
2018-07-03T05:38:07.320Z,70
2018-07-03T05:39:09.372Z,70
2018-07-03T05:40:11.409Z,70
2018-07-03T05:41:13.444Z,69
2018-07-03T05:42:15.773Z,71
2018-07-03T05:43:17.819Z,71
2018-07-03T05:44:20.142Z,71
2018-07-03T05:45:22.185Z,70
2018-07-03T05:46:24.215Z,70
2018-07-03T05:47:26.263Z,70
2018-07-03T05:48:28.312Z,70
2018-07-03T05:49:30.354Z,70
2018-07-03T05:50:32.678Z,69
2018-07-03T05:51:35.112Z,69
2018-07-03T05:52:37.154Z,69
2018-07-03T05:53:39.199Z,69
2018-07-03T05:54:41.236Z,68
2018-07-03T05:55:43.295Z,69
2018-07-03T05:56:45.332Z,68
2018-07-03T05:57:47.360Z,68
2018-07-03T05:58:50.175Z,68
2018-07-03T05:59:52.224Z,68
2018-07-03T06:00:54.258Z,68
2018-07-03T06:01:56.302Z,68
2018-07-03T06:02:58.356Z,67
2018-07-03T06:04:00.400Z,67
2018-07-03T06:05:02.441Z,67
2018-07-03T06:06:04.487Z,67
2018-07-03T06:07:06.526Z,66
2018-07-03T06:08:08.578Z,66
2018-07-03T06:09:11.613Z,65
2018-07-03T06:10:13.646Z,65
2018-07-03T06:11:15.685Z,65
2018-07-03T06:12:18.038Z,65
2018-07-03T06:13:20.082Z,65
2018-07-03T06:14:22.127Z,66
2018-07-03T06:15:24.171Z,66
2018-07-03T06:16:26.216Z,66
2018-07-03T06:17:28.253Z,66
2018-07-03T06:18:30.311Z,65
2018-07-03T06:19:32.337Z,65
2018-07-03T06:20:34.385Z,64
2018-07-03T06:21:36.429Z,63
2018-07-03T06:22:38.471Z,63
2018-07-03T06:23:40.520Z,63
2018-07-03T06:24:42.863Z,63
2018-07-03T06:25:44.902Z,62
2018-07-03T06:26:47.259Z,64
2018-07-03T06:27:49.584Z,64
2018-07-03T06:28:52.042Z,64
2018-07-03T06:29:54.005Z,64
2018-07-03T06:30:56.049Z,64
2018-07-03T06:31:58.100Z,65
2018-07-03T06:33:00.151Z,64
2018-07-03T06:34:02.875Z,62
2018-07-03T06:35:04.919Z,62
2018-07-03T06:36:06.965Z,62
2018-07-03T06:37:09.018Z,61
2018-07-03T06:38:11.051Z,62
2018-07-03T06:39:13.098Z,61
2018-07-03T06:40:15.149Z,61
2018-07-03T06:41:17.201Z,61
2018-07-03T06:42:19.250Z,60
2018-07-03T06:43:21.292Z,62
2018-07-03T06:44:23.626Z,62
2018-07-03T06:45:25.956Z,60
2018-07-03T06:46:28.005Z,60
2018-07-03T06:47:30.047Z,60
2018-07-03T06:48:32.047Z,61
2018-07-03T06:49:34.240Z,60
2018-07-03T06:50:36.084Z,59
2018-07-03T06:51:38.119Z,59
2018-07-03T06:52:40.156Z,58
2018-07-03T06:53:42.206Z,60
2018-07-03T06:54:44.655Z,57
2018-07-03T06:55:46.589Z,58
2018-07-03T06:56:48.636Z,58
2018-07-03T06:57:50.714Z,58
2018-07-03T06:58:52.947Z,57
2018-07-03T06:59:54.957Z,57
2018-07-03T07:00:56.977Z,56
2018-07-03T07:01:59.254Z,57
2018-07-03T07:03:01.545Z,56
2018-07-03T07:04:03.855Z,56
2018-07-03T07:05:05.895Z,56
2018-07-03T07:06:07.945Z,56
2018-07-03T07:07:10.297Z,56
2018-07-03T07:08:12.344Z,56
2018-07-03T07:09:14.480Z,55
2018-07-03T07:10:16.453Z,54
2018-07-03T07:11:18.501Z,54
2018-07-03T07:12:20.545Z,54
2018-07-03T07:13:22.597Z,55
2018-07-03T07:14:25.032Z,54
2018-07-03T07:15:27.077Z,55
2018-07-03T07:16:29.131Z,53
2018-07-03T07:17:31.169Z,53
2018-07-03T07:18:33.228Z,53
2018-07-03T07:19:35.272Z,53
2018-07-03T07:20:37.316Z,54
2018-07-03T07:21:39.369Z,52
2018-07-03T07:22:41.793Z,52
2018-07-03T07:23:44.217Z,52
2018-07-03T07:24:46.273Z,52
2018-07-03T07:25:48.317Z,50
2018-07-03T07:26:50.757Z,54
2018-07-03T07:27:52.801Z,50
2018-07-03T07:28:54.859Z,50
2018-07-03T07:29:56.914Z,52
2018-07-03T07:30:58.954Z,51
2018-07-03T07:32:01.297Z,51
2018-07-03T07:33:03.340Z,51
2018-07-03T07:34:06.059Z,51
2018-07-03T07:35:08.114Z,51
2018-07-03T07:36:10.179Z,51
2018-07-03T07:37:12.233Z,51
2018-07-03T07:38:14.295Z,51
2018-07-03T07:39:16.638Z,50
2018-07-03T07:40:18.692Z,51
2018-07-03T07:41:21.010Z,50
2018-07-03T07:42:23.006Z,49
2018-07-03T07:43:25.397Z,51
2018-07-03T07:44:27.403Z,49
2018-07-03T07:45:29.403Z,50
2018-07-03T07:46:31.458Z,49
2018-07-03T07:47:33.503Z,50
2018-07-03T07:48:35.930Z,49
2018-07-03T07:49:38.266Z,48
2018-07-03T07:50:40.313Z,48
2018-07-03T07:51:42.330Z,47
2018-07-03T07:52:44.352Z,48
2018-07-03T07:53:46.407Z,48
2018-07-03T07:54:48.474Z,46
2018-07-03T07:55:50.524Z,46
2018-07-03T07:56:53.146Z,46
2018-07-03T07:57:55.263Z,49
2018-07-03T07:58:57.258Z,48
2018-07-03T07:59:59.338Z,45
2018-07-03T08:01:01.362Z,45
2018-07-03T08:02:03.361Z,45
2018-07-03T08:03:06.035Z,48
2018-07-03T08:04:08.147Z,46
2018-07-03T08:05:10.438Z,48
2018-07-03T08:06:12.450Z,47
2018-07-03T08:07:14.458Z,46
2018-07-03T08:08:16.457Z,45
2018-07-03T08:09:18.491Z,45
2018-07-03T08:10:20.539Z,46
2018-07-03T08:11:22.584Z,46
2018-07-03T08:12:25.023Z,43
2018-07-03T08:13:27.091Z,43
2018-07-03T08:14:29.116Z,44
2018-07-03T08:15:31.136Z,43
2018-07-03T08:16:33.179Z,44
2018-07-03T08:17:35.233Z,43
2018-07-03T08:18:37.589Z,43
2018-07-03T08:19:40.543Z,43
2018-07-03T08:20:42.847Z,43
2018-07-03T08:21:44.880Z,42
2018-07-03T08:22:47.315Z,42
2018-07-03T08:23:49.359Z,44
2018-07-03T08:24:51.383Z,45
2018-07-03T08:25:53.812Z,46
2018-07-03T08:26:57.048Z,44
2018-07-03T08:27:59.488Z,42
2018-07-03T08:29:01.511Z,41
2018-07-03T08:30:03.834Z,41
2018-07-03T08:31:05.885Z,41
2018-07-03T08:32:07.934Z,41
2018-07-03T08:33:09.940Z,42
2018-07-03T08:34:15.453Z,41
2018-07-03T08:35:17.767Z,41
2018-07-03T08:36:19.817Z,42
2018-07-03T08:37:21.865Z,41
2018-07-03T08:38:24.217Z,41
2018-07-03T08:39:26.269Z,41
2018-07-03T08:40:28.583Z,41
2018-07-03T08:41:30.932Z,41
2018-07-03T08:42:33.575Z,41
2018-07-03T08:43:35.884Z,38
2018-07-03T08:44:40.596Z,39
2018-07-03T08:45:42.765Z,39
2018-07-03T08:46:44.885Z,39
2018-07-03T08:47:47.309Z,38
2018-07-03T08:48:49.683Z,40
2018-07-03T08:49:52.089Z,38
2018-07-03T08:50:54.810Z,38
2018-07-03T08:51:56.893Z,39
2018-07-03T08:52:58.913Z,37
2018-07-03T08:54:01.625Z,38
2018-07-03T08:55:03.699Z,37
2018-07-03T08:56:05.743Z,36
2018-07-03T08:57:07.811Z,36
2018-07-03T08:58:09.897Z,37
2018-07-03T08:59:11.968Z,36
2018-07-03T09:00:14.146Z,37
2018-07-03T09:01:17.007Z,37
2018-07-03T09:02:19.403Z,37
2018-07-03T09:03:21.733Z,35
2018-07-03T09:04:24.426Z,35
2018-07-03T09:05:26.964Z,36
2018-07-03T09:06:29.475Z,35
2018-07-03T09:07:31.514Z,36
2018-07-03T09:08:33.556Z,34
2018-07-03T09:09:35.600Z,34
2018-07-03T09:10:39.069Z,34
2018-07-03T09:11:41.089Z,35
2018-07-03T09:12:43.107Z,35
2018-07-03T09:13:45.144Z,36
2018-07-03T09:14:48.569Z,35
2018-07-03T09:15:50.870Z,34
2018-07-03T09:16:52.928Z,35
2018-07-03T09:17:55.024Z,34
2018-07-03T09:18:57.629Z,35
2018-07-03T09:19:59.956Z,35
2018-07-03T09:21:02.022Z,33
2018-07-03T09:22:04.042Z,35
2018-07-03T09:23:06.074Z,35
2018-07-03T09:24:08.116Z,33
2018-07-03T09:25:10.130Z,33
2018-07-03T09:26:12.160Z,34
2018-07-03T09:27:14.671Z,32
2018-07-03T09:28:16.711Z,32
2018-07-03T09:29:18.918Z,33
2018-07-03T09:30:21.316Z,32
2018-07-03T09:31:24.753Z,33
2018-07-03T09:32:26.823Z,34
2018-07-03T09:33:28.839Z,31
2018-07-03T09:34:30.912Z,31
2018-07-03T09:35:33.102Z,33
2018-07-03T09:36:35.926Z,32
2018-07-03T09:37:38.768Z,32
2018-07-03T09:38:41.526Z,33
2018-07-03T09:39:43.985Z,33
2018-07-03T09:40:46.031Z,30
2018-07-03T09:41:48.072Z,31
2018-07-03T09:42:50.116Z,32
2018-07-03T09:43:52.167Z,30
2018-07-03T09:44:54.209Z,31
2018-07-03T09:45:56.222Z,31
2018-07-03T09:46:58.231Z,32
2018-07-03T09:48:00.342Z,32
2018-07-03T09:49:32.495Z,31
2018-07-03T09:50:34.516Z,31
2018-07-03T09:51:36.570Z,31
2018-07-03T09:52:40.045Z,32
2018-07-03T09:53:42.165Z,30
2018-07-03T09:54:44.604Z,30
2018-07-03T09:55:46.862Z,30
2018-07-03T09:56:49.121Z,29
2018-07-03T09:57:51.480Z,29
2018-07-03T09:58:53.652Z,29
2018-07-03T09:59:57.536Z,28
2018-07-03T10:01:00.095Z,29
2018-07-03T10:02:02.332Z,30
2018-07-03T10:03:05.306Z,31
2018-07-03T10:04:08.569Z,30
2018-07-03T10:05:10.867Z,29
2018-07-03T10:06:13.487Z,30
2018-07-03T10:07:16.130Z,28
2018-07-03T10:08:18.873Z,28
2018-07-03T10:09:22.111Z,29
2018-07-03T10:10:25.844Z,29
2018-07-03T10:11:28.669Z,30
2018-07-03T10:12:31.457Z,29
2018-07-03T10:13:34.122Z,28
2018-07-03T10:14:36.635Z,29
2018-07-03T10:15:40.209Z,28
2018-07-03T10:16:42.617Z,28
2018-07-03T10:17:45.838Z,31
2018-07-03T10:18:49.015Z,28
2018-07-03T10:19:52.262Z,30
2018-07-03T10:20:55.213Z,31
2018-07-03T10:21:58.599Z,28
2018-07-03T10:23:01.123Z,29
2018-07-03T10:24:03.997Z,27
2018-07-03T10:25:06.805Z,27
2018-07-03T10:26:11.491Z,29
2018-07-03T10:27:14.739Z,28
2018-07-03T10:28:17.269Z,28
2018-07-03T10:29:19.843Z,28
2018-07-03T10:30:22.551Z,27
2018-07-03T10:31:25.375Z,28
2018-07-03T10:32:28.145Z,27
2018-07-03T10:33:30.611Z,28
2018-07-03T10:34:33.480Z,28
2018-07-03T10:35:36.311Z,27
2018-07-03T10:36:39.015Z,28
2018-07-03T10:37:41.369Z,27
2018-07-03T10:38:44.158Z,28
2018-07-03T10:39:46.715Z,27
2018-07-03T10:40:49.212Z,26
2018-07-03T10:41:51.741Z,28
2018-07-03T10:42:54.097Z,28
2018-07-03T10:43:56.568Z,27
2018-07-03T10:44:59.454Z,27
2018-07-03T10:46:02.035Z,27
2018-07-03T10:47:04.806Z,27
2018-07-03T10:48:08.726Z,27
2018-07-03T10:49:13.717Z,28
2018-07-03T10:50:20.018Z,27
2018-07-03T10:51:24.151Z,26
2018-07-03T10:52:28.950Z,26
2018-07-03T10:53:33.275Z,27
2018-07-03T10:54:38.996Z,27
2018-07-03T10:55:41.889Z,27
2018-07-03T10:56:46.368Z,27
2018-07-03T10:57:50.362Z,26
2018-07-03T10:58:53.970Z,27
2018-07-03T10:59:58.118Z,25
2018-07-03T11:01:02.767Z,26
2018-07-03T11:02:07.691Z,27
2018-07-03T11:03:11.933Z,26
2018-07-03T11:04:14.728Z,25
2018-07-03T11:05:17.180Z,26
2018-07-03T11:06:19.212Z,26
2018-07-03T11:07:21.257Z,26
2018-07-03T11:08:23.692Z,26
2018-07-03T11:09:26.310Z,26
2018-07-03T11:10:28.622Z,26
2018-07-03T11:11:30.691Z,27
2018-07-03T11:12:32.732Z,26
2018-07-03T11:13:34.778Z,27
2018-07-03T11:14:36.988Z,26
2018-07-03T11:15:39.103Z,25
2018-07-03T11:16:41.195Z,25
2018-07-03T11:17:43.229Z,25
2018-07-03T11:18:45.300Z,25
2018-07-03T11:19:47.441Z,26
2018-07-03T11:20:50.198Z,26
2018-07-03T11:21:52.512Z,25
2018-07-03T11:22:54.543Z,26
2018-07-03T11:23:56.576Z,25
2018-07-03T11:24:58.606Z,26
2018-07-03T11:26:00.954Z,25
2018-07-03T11:27:02.975Z,25
2018-07-03T11:28:05.015Z,25
2018-07-03T11:29:07.054Z,26
2018-07-03T11:30:09.102Z,25
2018-07-03T11:31:11.411Z,24
2018-07-03T11:32:13.444Z,23
2018-07-03T11:33:15.464Z,25
2018-07-03T11:34:17.499Z,25
2018-07-03T11:35:19.524Z,24
2018-07-03T11:36:21.567Z,23
2018-07-03T11:37:23.593Z,23
2018-07-03T11:38:25.622Z,24
2018-07-03T11:39:27.700Z,25
2018-07-03T11:40:29.729Z,26
2018-07-03T11:41:31.767Z,24
2018-07-03T11:42:34.200Z,23
2018-07-03T11:43:36.226Z,24
2018-07-03T11:44:38.543Z,24
2018-07-03T11:45:40.578Z,24
2018-07-03T11:46:42.901Z,24
2018-07-03T11:47:44.930Z,24
2018-07-03T11:48:46.971Z,23
2018-07-03T11:49:48.996Z,24
2018-07-03T11:50:51.019Z,25
2018-07-03T11:51:53.100Z,24
2018-07-03T11:52:55.399Z,24
2018-07-03T11:53:57.439Z,23
2018-07-03T11:54:59.736Z,24
2018-07-03T11:56:02.074Z,23
2018-07-03T11:57:04.121Z,24
2018-07-03T11:58:06.127Z,24
2018-07-03T11:59:08.170Z,24
2018-07-03T12:00:10.205Z,25
2018-07-03T12:01:12.245Z,24
2018-07-03T12:02:14.544Z,23
2018-07-03T12:03:16.568Z,23
2018-07-03T12:04:18.613Z,24
2018-07-03T12:05:21.937Z,23
2018-07-03T12:06:24.269Z,23
2018-07-03T12:07:26.564Z,24
2018-07-03T12:08:28.772Z,25
2018-07-03T12:09:30.878Z,25
2018-07-03T12:10:32.982Z,26
2018-07-03T12:11:35.222Z,25
2018-07-03T12:12:37.873Z,25
2018-07-03T12:13:40.456Z,26
2018-07-03T12:14:42.699Z,25
2018-07-03T12:15:45.031Z,24
2018-07-03T12:16:47.454Z,24
2018-07-03T12:17:50.509Z,25
2018-07-03T12:18:53.097Z,24
2018-07-03T12:19:55.339Z,26
2018-07-03T12:20:57.981Z,25
2018-07-03T12:22:00.776Z,23
2018-07-03T12:23:03.863Z,26
2018-07-03T12:24:06.290Z,25
2018-07-03T12:25:08.687Z,24
2018-07-03T12:26:10.827Z,24
2018-07-03T12:27:12.969Z,25
2018-07-03T12:28:15.435Z,23
2018-07-03T12:29:17.524Z,24
2018-07-03T12:30:19.940Z,22
2018-07-03T12:31:21.998Z,23
2018-07-03T12:32:24.702Z,23
2018-07-03T12:33:27.303Z,22
2018-07-03T12:34:29.738Z,23
2018-07-03T12:35:32.121Z,24
2018-07-03T12:36:34.197Z,22
2018-07-03T12:37:36.511Z,23
2018-07-03T12:38:38.795Z,22
2018-07-03T12:39:41.249Z,23
2018-07-03T12:40:43.679Z,24
2018-07-03T12:41:45.743Z,22
2018-07-03T12:42:47.807Z,23
2018-07-03T12:43:49.869Z,24
2018-07-03T12:44:52.316Z,24
2018-07-03T12:45:54.674Z,22
2018-07-03T12:46:56.731Z,25
2018-07-03T12:47:58.825Z,24
2018-07-03T12:49:00.881Z,24
2018-07-03T12:50:03.229Z,24
2018-07-03T12:51:05.252Z,22
2018-07-03T12:52:07.268Z,23
2018-07-03T12:53:09.293Z,22
2018-07-03T12:54:11.309Z,24
2018-07-03T12:55:13.719Z,22
2018-07-03T12:56:15.740Z,22
2018-07-03T12:57:17.795Z,22
2018-07-03T12:58:20.207Z,23
2018-07-03T12:59:22.222Z,23
2018-07-03T13:00:24.245Z,22
2018-07-03T13:01:26.266Z,23
2018-07-03T13:02:28.671Z,24
2018-07-03T13:03:30.696Z,24
2018-07-03T13:04:32.708Z,23
2018-07-03T13:05:34.725Z,23
2018-07-03T13:06:37.038Z,22
2018-07-03T13:07:39.081Z,22
2018-07-03T13:08:41.073Z,24
2018-07-03T13:09:43.095Z,23
2018-07-03T13:10:45.115Z,23
2018-07-03T13:11:47.139Z,23
2018-07-03T13:12:49.148Z,24
2018-07-03T13:13:51.181Z,23
2018-07-03T13:14:54.522Z,23
2018-07-03T13:15:56.999Z,23
2018-07-03T13:16:59.368Z,24
2018-07-03T13:18:01.695Z,24
2018-07-03T13:19:03.714Z,23
2018-07-03T13:20:05.745Z,23
2018-07-03T13:21:07.763Z,23
2018-07-03T13:22:09.786Z,24
2018-07-03T13:23:11.817Z,24
2018-07-03T13:24:13.838Z,23
2018-07-03T13:25:15.846Z,23
2018-07-03T13:26:17.868Z,24
2018-07-03T13:27:20.189Z,25
2018-07-03T13:28:22.771Z,24
2018-07-03T13:29:24.816Z,23
2018-07-03T13:30:27.403Z,24
2018-07-03T13:31:29.458Z,24
2018-07-03T13:32:31.727Z,24
2018-07-03T13:33:33.746Z,23
2018-07-03T13:34:36.154Z,24
2018-07-03T13:35:38.179Z,25
2018-07-03T13:36:40.194Z,25
2018-07-03T13:37:42.211Z,23
2018-07-03T13:38:44.243Z,23
2018-07-03T13:39:46.258Z,23
2018-07-03T13:40:48.287Z,23
2018-07-03T13:41:50.308Z,24
2018-07-03T13:42:52.330Z,24
2018-07-03T13:43:54.351Z,25
2018-07-03T13:44:56.359Z,23
2018-07-03T13:45:58.392Z,23
2018-07-03T13:47:00.801Z,23
2018-07-03T13:48:03.564Z,22
2018-07-03T13:49:05.581Z,24
2018-07-03T13:50:07.603Z,22
2018-07-03T13:51:09.665Z,21
2018-07-03T13:52:11.685Z,21
2018-07-03T13:53:13.705Z,23
2018-07-03T13:54:15.745Z,21
2018-07-03T13:55:17.761Z,23
2018-07-03T13:56:20.099Z,21
2018-07-03T13:57:22.123Z,21
2018-07-03T13:58:24.142Z,21
2018-07-03T13:59:26.180Z,21
2018-07-03T14:00:28.204Z,22
2018-07-03T14:01:30.234Z,21
2018-07-03T14:02:32.643Z,21
2018-07-03T14:03:34.661Z,20
2018-07-03T14:04:36.703Z,22
2018-07-03T14:05:39.012Z,21
2018-07-03T14:06:41.096Z,21
2018-07-03T14:07:45.118Z,23
2018-07-03T14:08:51.163Z,22
2018-07-03T14:09:58.231Z,22
2018-07-03T14:11:06.930Z,21
2018-07-03T14:12:14.774Z,22
2018-07-03T14:13:21.627Z,22
2018-07-03T14:14:28.149Z,21
2018-07-03T14:15:34.426Z,21
2018-07-03T14:16:46.154Z,22
2018-07-03T14:17:53.396Z,21
2018-07-03T14:19:00.473Z,22
2018-07-03T14:20:07.752Z,23
2018-07-03T14:21:15.108Z,23
2018-07-03T14:22:21.584Z,24
2018-07-03T14:23:27.435Z,23
2018-07-03T14:24:36.441Z,23
2018-07-03T14:25:45.479Z,23
2018-07-03T14:26:50.169Z,24
2018-07-03T14:27:52.998Z,24
2018-07-03T14:28:56.900Z,25
2018-07-03T14:30:02.179Z,25
2018-07-03T14:31:05.289Z,27
2018-07-03T14:32:08.034Z,31
2018-07-03T14:33:10.527Z,33
2018-07-03T14:34:12.894Z,34
2018-07-03T14:35:15.815Z,34
2018-07-03T14:36:18.632Z,35
2018-07-03T14:37:21.423Z,33
2018-07-03T14:38:24.193Z,34
2018-07-03T14:39:27.058Z,35
2018-07-03T14:40:29.771Z,35
2018-07-03T14:41:32.817Z,34
2018-07-03T14:42:35.190Z,35
2018-07-03T14:43:37.645Z,35
2018-07-03T14:44:40.031Z,35
2018-07-03T14:45:42.889Z,35
2018-07-03T14:46:45.247Z,35
2018-07-03T14:47:47.680Z,34
2018-07-03T14:48:53.285Z,34
2018-07-03T14:50:00.819Z,34
2018-07-03T14:51:08.372Z,33